aviador You're here:

KCNK Decoded Metar

CONCORDIA in KS, USA
Report Time2018-01-16 20:55:00
UTC Time2018-01-16 21:07:59
Flight Rules vfr VFR
Wind340° at 08 kt
W.Decomp.*RWY 35: 7.7 kt HW 2.2 kt LCW
RWY 30: 6.6 kt HW 4.5 kt RCW
RWY 03: 4.5 kt HW 6.6 kt LCW
W.Rank340° ranks 11
Current wind is below 340° avg. (10.5)
Visibility9999 m
Phenomena:N/A
Clouds:N/A
Expected CloudBase > 2,000 ft AGL from Temp-Dew spread
CeilingNone
Temp-11°C (ISA -23)
Dew Point-16°C (67% RH)
AAT-17.3°C
QNH1040 hPa
Density Alt-2,306 ft
Elevation1,467 ft
Report Wrong Elevation
Raw Report
KCNK 162055Z AUTO 34008KT 10SM CLR M11/M16 A3070 RMK AO2 SLP430
T11061156 56018=

Extra information for KCNK:More info

Metar Taf Metar & Taf Last 4 Metars F.Rules Stats Wind Profile Meteogram Temp Stats Airport Information Weather charts Add Link Nearby VenuesMetar ALERT Operation Metar Decoded Social comments

AIRNAV info for KCNK